Terminal Aerodrome Forecast
Issued by NWS Charleston, WV

Current Version | Previous Version | Text Only | Print | Product List | Glossary Off
Versions: 1 2 3 4 5 6 7 8 9 10 11 12 13 14 15 16 17 18 19 20 21 22 23 24 25 26 27

000
FTUS41 KRLX 190539
TAFEKN
TAF
KEKN 190539Z 1906/2006 17007KT P6SM BKN200
     FM190900 17008KT P6SM -RA OVC045
     FM191100 18007KT P6SM -RA BKN025
     FM191800 19007KT P6SM BKN040
     FM200200 18005KT P6SM SCT150=

USA.gov is the U.S. government's official web portal to all federal, state and local government web resources and services.